createdAt,value
2023-09-05T00:12:01.791Z,14.82
2023-09-05T00:42:03.669Z,14.78
2023-09-05T01:12:05.649Z,14.52
2023-09-05T01:42:07.186Z,14.20
2023-09-05T02:12:10.102Z,14.10
2023-09-05T02:42:11.802Z,13.95
2023-09-05T03:12:13.614Z,13.58
2023-09-05T03:42:19.720Z,13.42
2023-09-05T04:12:21.546Z,13.20
2023-09-05T04:42:24.162Z,13.06
2023-09-05T05:12:26.340Z,13.36
2023-09-05T05:42:28.358Z,14.27
2023-09-05T06:12:31.491Z,15.04
2023-09-05T06:42:33.067Z,16.21
2023-09-05T07:12:35.057Z,17.30
2023-09-05T07:42:36.611Z,18.45
2023-09-05T08:12:39.560Z,19.51
2023-09-05T08:42:41.166Z,20.86
2023-09-05T09:12:43.373Z,21.85
2023-09-05T09:42:44.954Z,23.12
2023-09-05T10:12:47.758Z,23.64
2023-09-05T10:42:49.413Z,23.90
2023-09-05T11:12:51.289Z,24.73
2023-09-05T12:13:44.845Z,24.45
2023-09-05T12:43:46.891Z,25.03
2023-09-05T14:16:58.030Z,24.50
2023-09-05T15:17:45.892Z,24.61
2023-09-05T15:47:47.974Z,24.05
2023-09-05T16:17:50.402Z,22.81
2023-09-05T16:47:52.715Z,21.76
2023-09-05T18:24:11.176Z,18.33
2023-09-05T18:54:15.587Z,17.37
2023-09-05T19:24:19.007Z,16.73
2023-09-05T19:54:23.025Z,16.11
2023-09-05T20:24:26.221Z,15.52
2023-09-05T20:54:30.668Z,15.02
2023-09-05T21:24:34.075Z,14.57
2023-09-05T21:54:37.958Z,14.13
2023-09-05T22:24:41.048Z,13.70
2023-09-05T22:54:44.642Z,13.36
2023-09-05T23:24:47.877Z,13.09
2023-09-05T23:54:51.390Z,12.83
